Terminal Aerodrome Forecast
Issued by NWS

Home | Current Version | Previous Version | Text Only | Print | Product List | Glossary On
Versions: 1 2 3 4 5 6 7 8 9 10 11 12
000
FTUS45 KREV 171100
TAFMMH
TAF
KMMH 171120Z 1712/1812 VRB04KT P6SM SKC
     FM171700 12006KT P6SM FEW180
     FM172000 22012G24KT P6SM BKN180
     FM180100 27010G18KT P6SM SCT100 BKN180
     FM180500 VRB04KT P6SM FEW070 BKN100
      AMD NOT SKED 1712/1714=

USA.gov is the U.S. government's official web portal to all federal, state and local government web resources and services.